Naples Municipal Airport
KAPF : now visible

Airfield :











YOU CAN JOIN US ON...

 
LOGIN :

Register | Disclaimer

   EN    FR    IT 

 









Legend :    VFR   Marginal VFR   IFR   Intensive IFR   Very Intensive IFR
Visi :
Ceiling :
>= 8 km
>= 3000ft
5 to 8 km
1000 to 3000 ft
1500m to 5 km
500 to 1000 ft
800 to 1500m
200 to 500 ft
< 800m
< 200 ft
Symbols :   Thunderstorms  Fog  Heavy snow  Heavy precipitations  Wind > 20 kt






- Airport Elevation : 8 ft


KAPF - Naples Municipal

CURRENT METAR :
  • 242253Z 09010KT 8SM BKN046 OVC055 26/25 A2984 RMK AO2 RAE28 SLP104 P0000 T02560250

EXPIRED METARs :
  • 242153Z 13010KT 8SM -RA FEW037 BKN060 OVC090 27/24 A2983 RMK AO2 RAB53 SLP100 P0000 T02720244
  • 242053Z 06004KT 10SM BKN060 OVC075 29/24 A2982 RMK AO2 SLP096 T02940244 56013

TAF KAPF
Valid from the 24 at 21:00 until the 25 at 18:00 UTC


242051Z 2421/2518 08010KT 6SM SHRA VCTS SCT025CB BKN050 OVC250
FM250000 07007KT P6SM VCSH SCT025 BKN050 OVC120
FM251400 14009KT P6SM VCSH FEW015 SCT025 BKN050
KZMA FIR / North America



MET'MAP, your aeronautical weather chart ! - Copyright ORBIFLY December 2007 - Disclaimer

ORBIFLY MET'MAP TEAM :

Programming & Development : Alexandra Zaïnal
Concept & original design : Baudouin d'Aumeries
Assistance for programming : Marc-Olivier Méhu
Technical & hardware support : Manuel Goepfert

Contact : metmap@orbifly.com




SOURCES & CREDITS :

   NOAA       Earth
Advisory